Time;durP1;ratioP1;P1;durP2;ratioP2;P2;SDS_P1;SDS_P2;PMS_P1;PMS_P2;Temp;Humidity;BMP_temperature;BMP_pressure;BME280_temperature;BME280_humidity;BME280_pressure;Samples;Min_cycle;Max_cycle;Signal;HPM_P1;HPM_P2
2021/11/29 00:01:17;;;;;;;18.43;13.23;;;;;;;11.67;98.39;92887.59;5038033;28;20482;-80
2021/11/29 00:03:44;;;;;;;17.13;12.67;;;;;;;11.38;99.44;92878.78;5073329;28;20446;-80
2021/11/29 00:06:12;;;;;;;19.97;12.57;;;;;;;11.43;100.00;92865.91;5073083;28;20871;-80
2021/11/29 00:08:39;;;;;;;19.70;12.80;;;;;;;11.50;100.00;92876.50;5037705;28;20450;-80
2021/11/29 00:11:06;;;;;;;20.40;12.67;;;;;;;11.53;100.00;92868.22;5073197;28;20499;-80
2021/11/29 00:13:33;;;;;;;20.83;12.53;;;;;;;11.54;99.69;92882.19;5072735;28;20425;-80
2021/11/29 00:16:01;;;;;;;19.57;13.60;;;;;;;11.54;99.72;92877.75;5072646;28;20932;-80
2021/11/29 00:18:28;;;;;;;14.37;11.97;;;;;;;11.45;100.00;92907.75;5054518;28;20457;-80
2021/11/29 00:20:55;;;;;;;13.73;11.40;;;;;;;11.46;100.00;92891.81;5071722;28;20454;-80
2021/11/29 00:23:24;;;;;;;13.93;11.50;;;;;;;11.46;100.00;92888.38;5072422;28;20441;-80
2021/11/29 00:25:51;;;;;;;14.00;11.23;;;;;;;11.45;100.00;92887.56;5054525;28;20433;-80
2021/11/29 00:28:18;;;;;;;13.73;10.27;;;;;;;11.16;100.00;92877.91;5054491;28;20441;-80
2021/11/29 00:30:47;;;;;;;21.87;14.93;;;;;;;11.20;100.00;92873.09;5076201;28;20498;-80
2021/11/29 00:33:14;;;;;;;20.13;13.73;;;;;;;11.28;100.00;92869.59;5077023;28;20444;-80
2021/11/29 00:35:42;;;;;;;18.83;14.63;;;;;;;11.31;100.00;92869.22;5076559;28;20441;-80
2021/11/29 00:38:10;;;;;;;23.33;14.43;;;;;;;11.37;100.00;92857.97;5058358;28;20436;-80
2021/11/29 00:40:40;;;;;;;17.40;12.77;;;;;;;11.12;100.00;92858.28;5058612;28;20439;-80
2021/11/29 00:43:07;;;;;;;18.33;14.77;;;;;;;11.26;100.00;92869.75;5058255;28;20443;-80
2021/11/29 00:45:34;;;;;;;19.90;14.53;;;;;;;11.30;100.00;92867.59;5077168;28;20427;-80
2021/11/29 00:48:01;;;;;;;21.43;14.80;;;;;;;11.26;100.00;92853.16;5076508;28;20439;-80
2021/11/29 00:50:28;;;;;;;17.73;13.07;;;;;;;11.13;100.00;92840.72;5076430;28;20758;-80
2021/11/29 00:52:55;;;;;;;25.33;14.20;;;;;;;11.07;100.00;92851.94;5076175;28;20518;-80
2021/11/29 00:55:23;;;;;;;21.83;13.67;;;;;;;11.11;100.00;92827.78;5075975;28;20429;-80
2021/11/29 00:57:51;;;;;;;19.17;13.60;;;;;;;11.21;100.00;92845.03;5076651;28;20433;-80
2021/11/29 01:00:21;;;;;;;17.83;12.80;;;;;;;11.29;100.00;92860.72;5041420;28;20515;-80
2021/11/29 01:02:48;;;;;;;15.83;12.67;;;;;;;11.36;100.00;92851.09;5076751;28;20456;-80
2021/11/29 01:05:16;;;;;;;20.53;13.50;;;;;;;11.43;100.00;92859.84;5076685;28;20444;-80
2021/11/29 01:07:43;;;;;;;18.60;12.50;;;;;;;11.48;100.00;92870.59;5076055;28;20451;-80
2021/11/29 01:10:12;;;;;;;24.27;13.40;;;;;;;11.46;100.00;92878.66;5076326;28;20433;-80
2021/11/29 01:12:39;;;;;;;19.67;13.97;;;;;;;11.49;100.00;92893.25;5076531;28;20545;-80
2021/11/29 01:15:10;;;;;;;19.43;12.63;;;;;;;11.55;100.00;92889.88;5075900;28;20437;-80
2021/11/29 01:17:37;;;;;;;20.60;13.70;;;;;;;11.60;100.00;92879.66;5077529;28;20445;-81
2021/11/29 01:20:06;;;;;;;18.70;13.67;;;;;;;11.63;100.00;92886.34;5076145;28;20432;-79
2021/11/29 01:22:33;;;;;;;17.93;13.80;;;;;;;11.53;100.00;92876.13;5076840;28;20437;-79
2021/11/29 01:25:00;;;;;;;19.70;13.77;;;;;;;11.48;100.00;92850.41;5075603;28;20440;-79
2021/11/29 01:27:27;;;;;;;23.63;15.77;;;;;;;11.42;100.00;92847.72;5075578;28;20435;-79
2021/11/29 01:29:54;;;;;;;27.00;15.53;;;;;;;11.42;100.00;92855.59;5075815;28;20432;-79
2021/11/29 01:32:23;;;;;;;20.70;14.87;;;;;;;11.45;100.00;92837.66;5076217;28;20475;-79
2021/11/29 01:34:50;;;;;;;23.90;17.03;;;;;;;11.30;100.00;92830.81;5075969;28;20441;-79
2021/11/29 01:37:17;;;;;;;26.17;17.17;;;;;;;11.25;100.00;92820.03;5075435;28;20520;-79
2021/11/29 01:39:44;;;;;;;24.27;16.20;;;;;;;11.25;100.00;92809.53;5040171;28;20436;-80
2021/11/29 01:42:11;;;;;;;21.80;15.20;;;;;;;11.24;100.00;92808.72;5075665;28;20429;-79
2021/11/29 01:44:38;;;;;;;22.53;16.50;;;;;;;11.30;100.00;92810.63;5075979;28;20447;-79
2021/11/29 01:50:29;;;;;;;22.70;15.77;;;;;;;11.15;100.00;92810.66;5074335;28;20428;-79
2021/11/29 01:52:56;;;;;;;22.57;15.63;;;;;;;11.23;100.00;92822.03;5075027;28;20986;-79
2021/11/29 01:55:23;;;;;;;26.30;16.73;;;;;;;11.28;100.00;92809.19;5074894;28;20900;-79
2021/11/29 01:57:50;;;;;;;27.67;19.70;;;;;;;11.24;100.00;92821.03;5075286;28;20441;-79
2021/11/29 02:00:21;;;;;;;32.00;19.90;;;;;;;11.15;100.00;92796.72;5074975;28;20436;-79
2021/11/29 02:02:49;;;;;;;24.00;18.47;;;;;;;11.07;100.00;92797.66;5074555;28;20451;-79
2021/11/29 02:05:17;;;;;;;26.57;17.90;;;;;;;11.14;100.00;92795.91;5075018;28;20939;-79
2021/11/29 02:07:46;;;;;;;25.03;18.10;;;;;;;11.21;100.00;92787.28;5074978;28;20448;-79
2021/11/29 02:10:13;;;;;;;29.47;20.93;;;;;;;11.06;100.00;92776.84;5074913;28;20445;-79
2021/11/29 02:12:40;;;;;;;25.13;17.40;;;;;;;10.95;100.00;92785.97;5074541;28;20477;-79
2021/11/29 02:15:08;;;;;;;30.20;17.50;;;;;;;11.10;100.00;92794.66;5074838;28;20453;-79
2021/11/29 02:17:35;;;;;;;29.03;17.60;;;;;;;11.18;100.00;92798.97;5075559;28;20433;-79
2021/11/29 02:20:04;;;;;;;24.50;17.77;;;;;;;11.24;100.00;92769.34;5074686;28;20478;-79
2021/11/29 02:22:32;;;;;;;25.60;18.47;;;;;;;10.94;100.00;92770.44;5074634;28;20429;-79
2021/11/29 02:24:59;;;;;;;24.33;17.20;;;;;;;11.07;100.00;92787.16;5074844;28;20436;-79
2021/11/29 02:27:26;;;;;;;23.20;17.30;;;;;;;11.10;100.00;92772.84;5074792;28;20937;-79
2021/11/29 02:29:55;;;;;;;28.80;16.90;;;;;;;11.16;100.00;92777.34;5074011;28;20440;-80
2021/11/29 02:32:22;;;;;;;23.23;14.90;;;;;;;11.22;100.00;92776.59;5073411;28;20480;-80
2021/11/29 02:34:50;;;;;;;24.53;16.63;;;;;;;11.28;100.00;92759.31;5073924;28;20446;-79
2021/11/29 02:37:17;;;;;;;26.30;16.57;;;;;;;11.30;100.00;92779.13;5074494;28;20445;-79
2021/11/29 02:39:45;;;;;;;26.30;17.70;;;;;;;11.26;100.00;92756.84;5074147;28;20433;-79
2021/11/29 02:42:14;;;;;;;24.30;16.40;;;;;;;11.25;100.00;92738.66;5074183;28;20433;-80
2021/11/29 02:54:48;;;;;;;25.90;18.07;;;;;;;11.05;100.00;92744.53;5074017;28;20816;-79
2021/11/29 02:57:18;;;;;;;25.97;17.83;;;;;;;10.99;100.00;92733.97;5074431;28;20837;-79
2021/11/29 02:59:45;;;;;;;26.23;17.63;;;;;;;10.93;100.00;92745.19;5073936;28;20882;-80
2021/11/29 03:02:14;;;;;;;29.53;19.00;;;;;;;10.99;100.00;92734.78;5074450;28;21009;-79
2021/11/29 03:04:42;;;;;;;28.60;17.90;;;;;;;10.77;100.00;92730.50;5074094;28;20433;-80
2021/11/29 03:07:11;;;;;;;26.67;19.70;;;;;;;10.59;100.00;92743.16;5073701;28;20443;-79
2021/11/29 03:09:38;;;;;;;26.20;18.50;;;;;;;10.74;100.00;92738.72;5073747;28;20447;-79
2021/11/29 03:12:08;;;;;;;31.30;20.20;;;;;;;10.82;100.00;92744.69;5073603;28;20476;-79
2021/11/29 03:14:36;;;;;;;25.63;18.70;;;;;;;10.87;100.00;92757.22;5074082;28;20490;-80
2021/11/29 03:17:04;;;;;;;30.00;21.27;;;;;;;10.91;100.00;92755.88;5073494;28;20445;-80
2021/11/29 03:19:33;;;;;;;25.50;18.53;;;;;;;10.99;100.00;92765.47;5038465;28;20449;-80
2021/11/29 03:22:01;;;;;;;28.23;19.10;;;;;;;11.00;100.00;92751.34;5073274;28;20455;-80
2021/11/29 03:24:28;;;;;;;27.70;19.10;;;;;;;11.06;100.00;92761.91;5073780;28;20443;-81
2021/11/29 03:26:55;;;;;;;28.40;18.13;;;;;;;11.13;100.00;92752.28;5055189;28;20440;-80
2021/11/29 03:29:27;;;;;;;27.40;19.43;;;;;;;11.15;100.00;92786.22;5073353;28;20439;-81
2021/11/29 03:31:55;;;;;;;24.20;17.20;;;;;;;11.10;100.00;92799.91;5073987;28;20507;-85
2021/11/29 03:34:23;;;;;;;24.50;17.20;;;;;;;11.12;100.00;92792.66;5073509;28;20440;-81
2021/11/29 03:36:51;;;;;;;33.13;17.90;;;;;;;11.08;100.00;92787.97;5074011;28;20432;-81
2021/11/29 03:39:21;;;;;;;27.20;19.93;;;;;;;11.02;100.00;92771.16;5073947;28;20447;-81
2021/11/29 03:41:49;;;;;;;29.93;20.60;;;;;;;10.88;100.00;92764.09;5073220;28;20440;-82
2021/11/29 03:44:16;;;;;;;31.27;21.80;;;;;;;10.78;100.00;92761.78;5073489;28;20436;-81
2021/11/29 03:46:47;;;;;;;23.70;17.80;;;;;;;10.60;100.00;92750.03;5073366;28;20437;-81
2021/11/29 03:49:14;;;;;;;28.33;17.83;;;;;;;10.76;100.00;92728.88;5073186;28;20896;-81
2021/11/29 03:51:41;;;;;;;33.97;22.83;;;;;;;10.57;100.00;92732.06;5073090;28;20511;-82
2021/11/29 03:54:09;;;;;;;39.43;26.00;;;;;;;9.99;100.00;92747.56;5073522;28;20462;-82
2021/11/29 03:56:36;;;;;;;36.50;24.53;;;;;;;9.98;100.00;92753.00;5073295;28;20575;-81
2021/11/29 03:59:04;;;;;;;27.97;20.50;;;;;;;10.11;100.00;92756.59;5073254;28;20429;-81
2021/11/29 04:01:33;;;;;;;27.60;20.97;;;;;;;10.25;100.00;92768.13;5073206;28;20957;-81
2021/11/29 04:04:01;;;;;;;29.13;21.07;;;;;;;10.38;100.00;92765.69;5073846;28;20432;-81
2021/11/29 04:09:50;;;;;;;23.83;17.80;;;;;;;10.60;100.00;92763.16;5076400;28;20423;-81
2021/11/29 04:12:17;;;;;;;26.23;19.80;;;;;;;10.70;100.00;92758.47;5077176;28;20525;-81
2021/11/29 04:14:43;;;;;;;27.67;18.00;;;;;;;10.24;100.00;92735.88;5077347;28;20532;-81
2021/11/29 04:17:10;;;;;;;28.37;17.57;;;;;;;10.22;100.00;92742.28;5077128;28;20451;-81
2021/11/29 04:19:42;;;;;;;26.00;18.20;;;;;;;10.38;100.00;92738.66;5076944;28;20441;-81
2021/11/29 04:22:09;;;;;;;26.80;21.17;;;;;;;10.40;100.00;92711.25;5077844;28;20539;-81
2021/11/29 04:24:39;;;;;;;25.80;16.70;;;;;;;10.32;100.00;92695.63;5077209;28;20810;-81
2021/11/29 04:27:07;;;;;;;18.93;14.03;;;;;;;10.37;100.00;92702.94;5043236;28;20539;-81
2021/11/29 04:29:38;;;;;;;20.33;13.37;;;;;;;10.22;100.00;92702.97;5042315;28;20432;-81
2021/11/29 04:32:06;;;;;;;15.73;11.37;;;;;;;10.19;100.00;92705.94;5077659;28;20428;-81
2021/11/29 04:34:33;;;;;;;16.00;12.97;;;;;;;10.44;100.00;92725.66;5076506;28;20455;-81
2021/11/29 04:37:02;;;;;;;19.63;15.30;;;;;;;10.42;100.00;92700.63;5076177;28;20463;-82
2021/11/29 04:39:29;;;;;;;21.70;16.27;;;;;;;10.48;100.00;92739.22;5041171;28;20444;-82
2021/11/29 04:41:56;;;;;;;16.00;13.80;;;;;;;10.61;100.00;92728.06;5075363;28;20447;-81
2021/11/29 04:44:23;;;;;;;20.37;15.30;;;;;;;10.69;100.00;92733.19;5076080;28;20809;-81
2021/11/29 04:46:50;;;;;;;19.57;15.63;;;;;;;10.78;100.00;92740.00;5076657;28;20467;-81
2021/11/29 04:49:17;;;;;;;19.20;15.00;;;;;;;10.82;100.00;92734.19;5076743;28;20456;-81
2021/11/29 04:51:43;;;;;;;21.03;15.97;;;;;;;10.87;100.00;92736.25;5075791;28;20447;-81
2021/11/29 04:54:12;;;;;;;26.27;18.80;;;;;;;10.90;100.00;92714.06;5076821;28;20476;-81
2021/11/29 04:56:41;;;;;;;17.93;14.60;;;;;;;10.94;100.00;92710.88;5077084;28;20489;-81
2021/11/29 04:59:08;;;;;;;27.43;18.60;;;;;;;10.88;100.00;92716.88;5077158;28;20501;-81
2021/11/29 05:01:35;;;;;;;20.87;15.30;;;;;;;10.99;100.00;92687.56;5076728;28;20455;-81
2021/11/29 05:04:02;;;;;;;21.40;15.47;;;;;;;11.05;100.00;92691.22;5076168;28;20441;-81
2021/11/29 05:06:29;;;;;;;18.77;15.63;;;;;;;11.11;100.00;92711.47;5076187;28;20950;-81
2021/11/29 05:08:56;;;;;;;31.23;23.37;;;;;;;11.07;100.00;92725.97;5076623;28;20435;-81
2021/11/29 05:11:24;;;;;;;36.37;26.33;;;;;;;11.05;100.00;92744.53;5076536;28;20440;-82
2021/11/29 05:13:51;;;;;;;35.53;25.47;;;;;;;10.97;100.00;92742.00;5076186;28;20470;-81
2021/11/29 05:16:18;;;;;;;49.50;33.30;;;;;;;10.99;100.00;92740.03;5040445;28;20437;-81
2021/11/29 05:18:45;;;;;;;36.67;26.17;;;;;;;11.05;100.00;92741.91;5076002;28;20786;-81
2021/11/29 05:21:12;;;;;;;36.90;26.20;;;;;;;11.13;100.00;92733.09;5076015;28;20443;-81
2021/11/29 05:23:39;;;;;;;31.40;23.07;;;;;;;11.13;100.00;92731.28;5075643;28;20445;-81
2021/11/29 05:26:05;;;;;;;34.30;24.07;;;;;;;11.16;100.00;92727.47;5076088;28;20436;-81
2021/11/29 05:28:34;;;;;;;45.07;30.70;;;;;;;11.08;100.00;92727.59;5075692;28;20931;-81
2021/11/29 05:31:01;;;;;;;39.13;25.13;;;;;;;10.98;100.00;92717.38;5075859;28;20802;-81
2021/11/29 05:33:28;;;;;;;66.80;43.97;;;;;;;10.91;100.00;92711.25;5075539;28;21003;-81
2021/11/29 05:35:55;;;;;;;45.83;34.17;;;;;;;10.83;100.00;92727.13;5075740;28;20429;-81
2021/11/29 05:38:22;;;;;;;27.20;19.63;;;;;;;10.83;100.00;92755.97;5075833;28;20916;-81
2021/11/29 05:40:49;;;;;;;40.03;23.50;;;;;;;10.82;100.00;92759.59;5075902;28;20453;-81
2021/11/29 05:43:16;;;;;;;63.10;32.10;;;;;;;10.86;100.00;92750.38;5075763;28;20443;-81
2021/11/29 05:45:44;;;;;;;99.73;50.80;;;;;;;10.81;100.00;92742.25;5075567;28;20432;-81
2021/11/29 05:48:14;;;;;;;67.63;38.70;;;;;;;10.76;100.00;92752.47;5075212;28;20436;-81
2021/11/29 05:50:41;;;;;;;21.83;13.53;;;;;;;10.68;100.00;92742.88;5075077;28;20919;-81
2021/11/29 05:53:08;;;;;;;17.27;12.13;;;;;;;10.71;100.00;92741.72;5074672;28;20589;-81
2021/11/29 05:55:35;;;;;;;17.13;14.13;;;;;;;10.61;100.00;92741.19;5039943;28;20805;-81
2021/11/29 05:58:02;;;;;;;15.30;11.50;;;;;;;10.64;100.00;92759.16;5075258;28;20452;-80
2021/11/29 06:00:30;;;;;;;10.40;8.37;;;;;;;10.72;100.00;92753.84;5055182;28;20426;-81
2021/11/29 06:03:03;;;;;;;10.23;6.50;;;;;;;10.59;100.00;92748.41;5055482;28;20541;-80
2021/11/29 06:05:30;;;;;;;14.97;11.63;;;;;;;10.76;100.00;92770.84;5055201;28;20998;-76
2021/11/29 06:07:57;;;;;;;25.30;17.80;;;;;;;10.87;100.00;92770.34;5020425;28;20438;-79
2021/11/29 06:10:24;;;;;;;19.60;13.30;;;;;;;10.96;100.00;92757.94;5055303;28;20426;-80
2021/11/29 06:12:51;;;;;;;17.23;11.47;;;;;;;11.03;100.00;92764.91;5055068;28;20487;-80
2021/11/29 06:15:19;;;;;;;15.77;12.67;;;;;;;11.04;100.00;92774.41;5053810;28;20442;-81
2021/11/29 06:17:46;;;;;;;18.37;13.37;;;;;;;10.69;100.00;92780.41;5053482;28;20936;-80
2021/11/29 06:20:19;;;;;;;29.03;19.40;;;;;;;10.76;100.00;92795.25;5053529;28;20448;-79
2021/11/29 06:22:47;;;;;;;23.37;15.67;;;;;;;10.92;100.00;92807.34;5053899;28;20529;-79
2021/11/29 06:25:14;;;;;;;17.97;11.83;;;;;;;11.02;100.00;92797.41;5052845;28;20453;-81
2021/11/29 06:27:41;;;;;;;12.30;10.83;;;;;;;10.94;100.00;92794.03;5053767;28;20446;-80
2021/11/29 06:30:08;;;;;;;17.73;13.10;;;;;;;10.85;100.00;92798.59;5054683;28;20783;-79
2021/11/29 06:32:36;;;;;;;19.17;13.80;;;;;;;11.00;100.00;92828.25;5054882;28;20432;-78
2021/11/29 06:35:03;;;;;;;23.03;15.33;;;;;;;11.11;100.00;92832.22;5054410;28;20445;-77
2021/11/29 06:37:32;;;;;;;18.30;12.50;;;;;;;10.74;100.00;92794.63;5054187;28;20447;-82
2021/11/29 06:39:59;;;;;;;17.60;11.93;;;;;;;10.93;100.00;92795.84;5054740;28;20792;-79
2021/11/29 06:42:27;;;;;;;18.00;12.97;;;;;;;11.10;100.00;92814.84;5054464;28;20418;-81
2021/11/29 06:44:55;;;;;;;18.97;13.43;;;;;;;11.26;100.00;92825.09;5054490;28;20425;-81
2021/11/29 06:47:22;;;;;;;54.42;32.90;;;;;;;11.31;100.00;92841.16;5054020;28;20432;-81
2021/11/29 06:49:49;;;;;;;90.00;49.63;;;;;;;11.31;100.00;92832.47;5054184;28;20223;-80
2021/11/29 06:52:16;;;;;;;83.03;45.63;;;;;;;11.38;100.00;92835.97;5059245;28;20437;-79
2021/11/29 06:54:48;;;;;;;67.87;37.30;;;;;;;11.44;100.00;92829.97;5073904;28;20840;-80
2021/11/29 06:57:16;;;;;;;40.83;28.53;;;;;;;11.48;100.00;92852.22;5074262;28;20481;-79
2021/11/29 06:59:44;;;;;;;30.50;19.73;;;;;;;11.53;100.00;92854.28;5074034;28;20464;-79
2021/11/29 07:02:12;;;;;;;22.87;18.70;;;;;;;11.56;100.00;92846.03;5074532;28;20951;-79
2021/11/29 07:04:38;;;;;;;43.13;28.93;;;;;;;11.61;100.00;92862.06;5073812;28;20525;-79
2021/11/29 07:07:06;;;;;;;30.80;20.97;;;;;;;11.64;100.00;92864.31;5073598;28;20455;-78
2021/11/29 07:09:33;;;;;;;23.83;14.47;;;;;;;11.66;100.00;92868.38;5073902;28;20437;-77
2021/11/29 07:12:01;;;;;;;17.50;12.80;;;;;;;11.68;100.00;92861.13;5073907;28;20421;-77
2021/11/29 07:14:29;;;;;;;14.67;11.33;;;;;;;11.72;100.00;92846.63;5073922;28;20476;-78
2021/11/29 07:16:56;;;;;;;17.83;11.60;;;;;;;11.81;100.00;92851.78;5038985;28;20446;-78
2021/11/29 07:19:23;;;;;;;12.90;10.83;;;;;;;11.84;100.00;92875.03;5055335;28;20446;-78
2021/11/29 07:21:50;;;;;;;14.07;12.13;;;;;;;11.90;100.00;92883.03;5074091;28;20457;-77
2021/11/29 07:24:17;;;;;;;15.00;11.93;;;;;;;11.97;100.00;92881.25;5072524;28;20833;-77
2021/11/29 07:26:45;;;;;;;20.23;13.80;;;;;;;12.00;100.00;92859.84;5072440;28;20448;-76
2021/11/29 07:29:14;;;;;;;19.40;13.30;;;;;;;12.05;100.00;92848.78;5072059;28;20453;-76
2021/11/29 07:31:41;;;;;;;21.67;13.47;;;;;;;12.05;100.00;92841.69;5072231;28;20441;-77
2021/11/29 07:34:08;;;;;;;34.17;19.50;;;;;;;12.07;100.00;92854.66;5072399;28;20483;-77
2021/11/29 07:36:36;;;;;;;40.37;26.37;;;;;;;12.06;100.00;92859.09;5072294;28;20829;-77
2021/11/29 07:39:04;;;;;;;37.00;24.20;;;;;;;12.03;100.00;92863.91;5072089;28;20445;-77
2021/11/29 07:41:31;;;;;;;28.30;18.60;;;;;;;11.99;100.00;92852.16;5072118;28;20432;-77
2021/11/29 07:43:58;;;;;;;21.60;14.60;;;;;;;12.01;100.00;92872.00;5072227;28;20457;-76
2021/11/29 07:46:26;;;;;;;16.80;14.07;;;;;;;12.07;100.00;92854.66;5072030;28;20442;-77
2021/11/29 07:48:53;;;;;;;16.53;13.60;;;;;;;12.14;100.00;92866.03;5072487;28;20871;-77
2021/11/29 07:51:20;;;;;;;19.90;14.10;;;;;;;12.18;100.00;92879.63;5071761;28;20937;-77
2021/11/29 07:53:47;;;;;;;24.43;14.70;;;;;;;12.22;100.00;92900.09;5071767;28;20486;-77
2021/11/29 07:56:14;;;;;;;18.33;14.30;;;;;;;12.24;100.00;92892.84;5071904;28;20479;-77
2021/11/29 07:58:41;;;;;;;16.90;12.93;;;;;;;12.27;100.00;92887.19;5071816;28;20447;-76
2021/11/29 08:01:10;;;;;;;38.53;22.90;;;;;;;12.25;100.00;92877.88;5036278;28;20460;-77
2021/11/29 08:03:38;;;;;;;41.47;27.70;;;;;;;12.13;100.00;92861.78;5071957;28;20483;-77
2021/11/29 08:06:05;;;;;;;31.50;23.70;;;;;;;12.21;100.00;92860.84;5037066;28;20441;-77
2021/11/29 08:08:32;;;;;;;36.13;23.70;;;;;;;12.30;100.00;92891.25;5071794;28;20447;-77
2021/11/29 08:10:59;;;;;;;32.83;21.00;;;;;;;12.33;100.00;92881.19;5071794;28;20448;-77
2021/11/29 08:13:26;;;;;;;22.93;16.50;;;;;;;12.36;100.00;92869.47;5071545;28;20543;-77
2021/11/29 08:15:53;;;;;;;22.07;15.43;;;;;;;12.31;100.00;92885.00;5072140;28;20451;-77
2021/11/29 08:18:20;;;;;;;26.53;18.03;;;;;;;12.36;100.00;92901.03;5071961;28;20444;-77
2021/11/29 08:20:49;;;;;;;29.80;20.10;;;;;;;12.39;100.00;92908.53;5071711;28;20444;-77
2021/11/29 08:23:16;;;;;;;37.77;29.23;;;;;;;12.39;100.00;92895.38;5071281;28;20451;-78
2021/11/29 08:25:43;;;;;;;35.77;25.77;;;;;;;12.37;100.00;92905.28;5071380;28;20824;-78
2021/11/29 08:28:11;;;;;;;33.73;25.53;;;;;;;12.41;100.00;92901.25;5072420;28;20443;-78
2021/11/29 08:30:40;;;;;;;25.00;19.37;;;;;;;12.41;100.00;92915.22;5072031;28;20449;-79
2021/11/29 08:33:07;;;;;;;44.07;23.37;;;;;;;12.33;100.00;92944.28;5072468;28;20433;-78
2021/11/29 08:35:35;;;;;;;14.37;8.40;;;;;;;11.71;100.00;92971.09;5072728;28;20887;-78
2021/11/29 08:38:03;;;;;;;9.20;5.47;;;;;;;11.32;100.00;93015.25;5072266;28;20445;-79
2021/11/29 08:40:33;;;;;;;5.13;4.07;;;;;;;10.85;100.00;93006.66;5037140;28;20450;-79
2021/11/29 08:43:02;;;;;;;3.77;2.83;;;;;;;9.87;98.65;93037.16;5072441;28;20444;-81
2021/11/29 08:45:31;;;;;;;3.37;3.03;;;;;;;9.33;98.69;93068.44;5037784;28;20443;-81
2021/11/29 08:48:02;;;;;;;3.60;3.00;;;;;;;9.07;100.00;93071.28;5072661;28;20444;-80
2021/11/29 08:50:29;;;;;;;4.90;2.47;;;;;;;8.61;100.00;93070.97;5074368;28;20470;-82
2021/11/29 08:52:57;;;;;;;13.87;2.80;;;;;;;8.21;100.00;93079.53;5076249;28;20441;-81
2021/11/29 08:55:26;;;;;;;4.83;3.10;;;;;;;8.03;100.00;93066.59;5076717;28;20479;-81
2021/11/29 08:57:54;;;;;;;3.00;2.63;;;;;;;7.98;100.00;93073.28;5077321;28;20473;-82
2021/11/29 09:00:22;;;;;;;6.80;4.50;;;;;;;7.83;100.00;93075.69;5076410;28;20763;-81
2021/11/29 09:02:49;;;;;;;3.50;3.17;;;;;;;7.89;100.00;93090.72;5076879;28;20943;-81
2021/11/29 09:05:17;;;;;;;2.77;2.23;;;;;;;7.85;100.00;93076.34;5041277;28;20441;-81
2021/11/29 09:07:45;;;;;;;4.07;3.37;;;;;;;7.93;100.00;93086.81;5076448;28;20938;-81
2021/11/29 09:10:14;;;;;;;2.83;2.53;;;;;;;7.87;100.00;93086.66;5076427;28;20457;-81
2021/11/29 09:12:42;;;;;;;4.70;3.63;;;;;;;7.91;100.00;93125.34;5076208;28;20445;-81
2021/11/29 09:15:13;;;;;;;2.93;2.67;;;;;;;7.85;100.00;93136.41;5076323;28;20491;-82
2021/11/29 09:17:40;;;;;;;3.97;3.60;;;;;;;7.93;100.00;93151.28;5075672;28;20983;-82
2021/11/29 09:20:10;;;;;;;3.23;2.90;;;;;;;7.95;100.00;93152.78;5076417;28;20440;-82
2021/11/29 09:22:37;;;;;;;5.10;3.87;;;;;;;7.95;100.00;93189.34;5076019;28;20446;-82
2021/11/29 09:25:05;;;;;;;4.17;3.77;;;;;;;7.92;100.00;93210.53;5076190;28;20437;-82
2021/11/29 09:27:32;;;;;;;16.50;9.70;;;;;;;7.90;100.00;93189.00;5075672;28;20445;-81
2021/11/29 09:30:01;;;;;;;5.43;4.70;;;;;;;7.86;100.00;93187.66;5075931;28;20436;-81
2021/11/29 09:32:29;;;;;;;5.47;4.60;;;;;;;7.93;100.00;93161.75;5075132;28;20436;-80
2021/11/29 09:34:55;;;;;;;5.10;3.20;;;;;;;7.83;100.00;93164.47;5075913;28;20473;-81
2021/11/29 09:37:26;;;;;;;3.93;3.53;;;;;;;7.93;100.00;93175.63;5075902;28;20435;-80
2021/11/29 09:39:52;;;;;;;4.70;4.30;;;;;;;8.02;100.00;93169.44;5075829;28;20790;-80
2021/11/29 09:42:19;;;;;;;6.93;3.10;;;;;;;7.99;100.00;93168.94;5076166;28;20453;-80
2021/11/29 09:44:51;;;;;;;6.73;4.30;;;;;;;7.89;100.00;93163.03;5040745;28;20449;-80
2021/11/29 09:47:19;;;;;;;4.07;3.77;;;;;;;7.85;100.00;93162.53;5075737;28;20434;-80
2021/11/29 09:49:47;;;;;;;6.77;3.93;;;;;;;8.03;100.00;93152.78;5074955;28;20936;-80
2021/11/29 09:52:14;;;;;;;9.60;5.13;;;;;;;8.15;100.00;93163.78;5074792;28;20444;-79
2021/11/29 09:54:42;;;;;;;10.47;5.50;;;;;;;8.32;100.00;93148.97;5075409;28;20485;-79
2021/11/29 09:57:09;;;;;;;23.60;12.33;;;;;;;8.45;100.00;93146.75;5075668;28;20467;-81
2021/11/29 09:59:35;;;;;;;8.00;5.77;;;;;;;8.48;100.00;93146.44;5075607;28;20422;-81
2021/11/29 10:05:27;;;;;;;3.70;3.30;;;;;;;8.68;100.00;93167.88;5074267;28;20413;-77
2021/11/29 10:07:54;;;;;;;2.37;2.07;;;;;;;8.56;99.64;93177.81;5075316;28;20209;-77
2021/11/29 10:10:24;;;;;;;5.43;2.40;;;;;;;8.55;99.72;93165.72;5075471;28;20532;-77
2021/11/29 10:12:53;;;;;;;2.37;2.17;;;;;;;8.55;99.58;93163.09;5074742;28;20458;-78
2021/11/29 10:15:24;;;;;;;2.83;2.53;;;;;;;8.58;100.00;93162.78;5074759;28;20469;-78
2021/11/29 10:17:54;;;;;;;3.80;3.00;;;;;;;8.64;100.00;93154.28;5074993;28;20886;-78
2021/11/29 10:20:21;;;;;;;7.43;4.00;;;;;;;8.68;100.00;93168.72;5075143;28;20932;-77
2021/11/29 10:23:02;;;;;;;15.63;12.17;;;;;;;8.71;99.37;93169.38;5056260;28;20434;-78
2021/11/29 10:25:29;;;;;;;4.33;3.23;;;;;;;8.67;99.16;93167.06;5075398;28;20434;-78
2021/11/29 10:27:56;;;;;;;3.07;2.77;;;;;;;8.76;98.22;93160.03;5039525;28;20441;-77
2021/11/29 10:30:28;;;;;;;5.73;3.43;;;;;;;8.74;98.22;93164.63;5074681;28;20430;-77
2021/11/29 10:32:55;;;;;;;6.13;3.87;;;;;;;8.72;98.22;93157.91;5074757;28;20452;-77
2021/11/29 10:35:29;;;;;;;19.50;11.30;;;;;;;8.75;98.11;93149.75;5074700;28;20577;-78
2021/11/29 10:37:57;;;;;;;11.90;6.30;;;;;;;8.72;98.63;93147.47;5074442;28;20793;-79
2021/11/29 10:40:27;;;;;;;5.23;4.43;;;;;;;8.78;97.89;93154.66;5074940;28;20454;-78
2021/11/29 10:42:54;;;;;;;5.20;4.70;;;;;;;8.84;98.73;93154.81;5039350;28;21210;-78
2021/11/29 10:45:24;;;;;;;10.80;7.10;;;;;;;8.77;97.50;93155.63;5074419;28;20448;-78
2021/11/29 10:47:53;;;;;;;8.67;5.93;;;;;;;8.85;98.26;93153.84;5039361;28;20448;-78
2021/11/29 10:50:25;;;;;;;9.07;5.27;;;;;;;8.91;98.18;93137.47;5074161;28;20942;-79
2021/11/29 10:53:07;;;;;;;6.13;3.57;;;;;;;8.94;97.81;93149.41;5074303;28;20423;-79
2021/11/29 10:55:58;;;;;;;4.80;4.10;;;;;;;9.06;98.25;93157.78;5074430;28;20546;-77
2021/11/29 10:58:27;;;;;;;4.67;4.17;;;;;;;9.16;97.70;93154.00;5074135;28;20437;-77
2021/11/29 11:00:57;;;;;;;3.77;3.13;;;;;;;9.17;94.86;93150.41;5073883;28;20923;-77
2021/11/29 11:03:24;;;;;;;4.60;3.60;;;;;;;9.16;94.53;93154.00;5074623;28;20433;-77
2021/11/29 11:06:05;;;;;;;3.00;2.80;;;;;;;9.20;94.54;93149.25;5074423;28;20443;-77
2021/11/29 11:08:33;;;;;;;8.90;5.83;;;;;;;9.26;95.16;93149.44;5074079;28;20469;-77
2021/11/29 11:11:24;;;;;;;5.50;5.00;;;;;;;9.27;94.97;93156.31;5038699;28;20441;-77
2021/11/29 11:14:02;;;;;;;3.33;3.03;;;;;;;9.04;93.19;93149.28;5073374;28;20439;-77
2021/11/29 11:16:49;;;;;;;4.30;3.90;;;;;;;9.07;93.32;93151.56;5074459;28;20468;-77
2021/11/29 11:19:42;;;;;;;6.40;4.50;;;;;;;8.98;94.29;93161.22;5055337;28;20469;-77
2021/11/29 11:22:19;;;;;;;10.20;5.80;;;;;;;8.96;94.56;93150.91;5037571;28;20811;-77
2021/11/29 11:24:49;;;;;;;6.13;3.80;;;;;;;9.05;95.08;93151.72;5073082;28;20445;-77
2021/11/29 11:27:18;;;;;;;7.37;4.33;;;;;;;9.11;95.35;93140.59;5072635;28;20447;-78
2021/11/29 11:29:50;;;;;;;5.57;4.23;;;;;;;9.19;93.04;93140.59;5072959;28;20429;-78
2021/11/29 11:32:23;;;;;;;13.27;6.43;;;;;;;9.22;93.03;93129.78;5054219;28;20465;-79
2021/11/29 11:34:52;;;;;;;8.57;6.73;;;;;;;9.10;92.10;93128.50;5073350;28;20470;-78
2021/11/29 11:37:21;;;;;;;11.63;7.53;;;;;;;9.16;92.50;93127.03;5074211;28;20441;-77
2021/11/29 11:39:50;;;;;;;11.17;7.60;;;;;;;9.20;92.07;93138.78;5055095;28;20449;-77
2021/11/29 11:42:19;;;;;;;8.10;6.23;;;;;;;9.20;93.01;93150.06;5072850;28;20504;-79